Latest Coastal Weather Observations for Devonport Airport

IDV60701

Issued at 8:05 pm EST Thursday 21 August 2014 (issued every 10 minutes, with the page automatically refreshed every 10 minutes)

About coastal observations | Map of coastal stations | Coastal observations for VIC | Marine services | Other Formats
Station Details ID: 091126 Name: DEVONPORT AIRPORT Lat: -41.17 Lon: 146.43 Height: 8.0 m
Data from the previous 72 hours. | See also: Recent months at Devonport Airport
Date/Time
EST
Temp

°C
Wind Pressure Rain
since 9am
mm
Weather Cloud Vis
km
Sea
Height
m
Swell
Dir
 
Speed
knots
Gust
knots
hPa Trend Height
m
Period
s
Dir
21/08:00pm 11.8 E 10 13 1032.9 - 0.0 - Cloudy 10 - - - -
21/07:30pm 11.7 E 9 12 1032.8 - 0.0 - Cloudy 10 - - - -
21/07:00pm 11.6 E 7 9 1032.6 - 0.0 - Cloudy 10 - - - -
21/06:30pm 11.6 E 7 9 1032.5 - 0.0 - Cloudy 10 - - - -
21/06:00pm 11.5 ENE 5 7 1032.3 - 0.0 - Mostly cloudy 10 - - - -
21/05:30pm 12.1 ENE 8 10 1032.0 - 0.0 - Cloudy 10 - - - -
21/05:00pm 12.4 NE 9 11 1031.7 - 0.0 - Partly cloudy 10 - - - -
21/04:30pm 12.8 NE 7 9 1031.5 - 0.0 - Partly cloudy 10 - - - -
21/04:00pm 13.2 NE 7 10 1031.5 - 0.0 - Partly cloudy 10 - - - -
21/03:30pm 13.5 NE 11 13 1031.4 - 0.0 - Partly cloudy 10 - - - -
21/03:00pm 13.5 NE 10 13 1031.4 - 0.0 - Mostly cloudy 10 - - - -
21/02:30pm 13.6 NE 10 12 1031.5 - 0.0 - Cloudy 10 - - - -
21/02:00pm 14.1 NE 12 16 1031.5 - 0.0 - Partly cloudy 10 - - - -
21/01:30pm 13.3 NE 11 14 1031.8 - 0.0 - Cloudy 10 - - - -
21/01:00pm 14.1 NE 9 12 1032.0 - 0.0 - Cloudy 10 - - - -
21/12:30pm 13.5 NNE 9 11 1032.1 - 0.0 - Cloudy 10 - - - -
21/12:00pm 13.6 NE 8 11 1032.5 - 0.0 - Cloudy 10 - - - -
21/11:30am 13.7 NE 7 9 1032.8 - 0.0 - Partly cloudy 10 - - - -
21/11:00am 13.0 SSE 8 11 1032.8 - 0.0 - Partly cloudy 10 - - - -
21/10:30am 11.9 SSE 8 10 1033.0 - 0.0 - Partly cloudy 10 - - - -
21/10:00am 10.6 SSE 10 12 1033.1 - 0.0 - Cloudy 10 - - - -
21/09:30am 8.5 S 12 14 1033.1 - 0.0 - Cloudy 10 - - - -
21/09:00am 7.5 S 10 13 1033.1 - 0.0 - Cloudy 10 - - - -
21/08:30am 6.8 S 11 13 1033.0 - 0.0 - - 10 - - - -
21/08:00am 6.4 S 10 12 1032.8 - 0.0 - Partly cloudy 10 - - - -
21/07:30am 5.8 S 9 11 1032.3 - 0.0 - Cloudy 10 - - - -
21/07:00am 5.1 S 9 12 1032.0 - 0.0 - Cloudy 10 - - - -
21/06:30am 5.0 S 8 11 1031.8 - 0.0 - Partly cloudy 10 - - - -
21/06:00am 4.3 S 9 12 1031.5 - 0.0 - - 10 - - - -
21/05:30am 4.7 S 9 11 1031.4 - 0.0 - - 10 - - - -
21/05:00am 5.4 S 10 11 1031.3 - 0.0 - - 10 - - - -
21/04:30am 6.0 SSE 10 12 1031.1 - 0.0 - - 10 - - - -
21/04:00am 6.3 SSE 9 10 1030.9 - 0.0 - Partly cloudy 10 - - - -
21/03:30am 6.2 S 7 9 1030.8 - 0.0 - Partly cloudy 10 - - - -
21/03:00am 6.9 SSE 10 11 1030.7 - 0.0 - Mostly cloudy 10 - - - -
21/02:30am 6.6 S 7 9 1030.8 - 0.0 - Cloudy 10 - - - -
21/02:00am 7.0 S 8 9 1030.8 - 0.0 - Cloudy 10 - - - -
21/01:30am 7.1 S 8 9 1030.8 - 0.0 - Partly cloudy 10 - - - -
21/01:00am 7.4 S 6 8 1030.8 - 0.0 - Cloudy 10 - - - -
21/12:30am 7.3 S 8 9 1030.7 - 0.0 - Partly cloudy 10 - - - -
21/12:00am 7.2 S 7 9 1030.7 - 0.0 - Cloudy 10 - - - -
 
Date/Time
EST
Temp

°C
Wind Pressure Rain
since 9am
mm
Weather Cloud Vis
km
Sea
Height
m
Swell
Dir
 
Speed
knots
Gust
knots
hPa Trend Height
m
Period
s
Dir
20/11:30pm 7.1 S 7 8 1030.7 - 0.0 - Partly cloudy 10 - - - -
20/11:00pm 7.1 S 7 9 1030.5 - 0.0 - Partly cloudy 10 - - - -
20/10:30pm 6.9 S 6 7 1030.4 - 0.0 - Cloudy 10 - - - -
20/10:00pm 5.5 S 5 6 1030.4 - 0.0 - Partly cloudy 10 - - - -
20/09:30pm 5.7 SSE 5 6 1030.2 - 0.0 - - 10 - - - -
20/09:00pm 5.7 S 6 7 1030.0 - 0.0 - - 10 - - - -
20/08:30pm 5.8 SSE 5 6 1029.8 - 0.0 - - 10 - - - -
20/08:00pm 5.7 SSE 6 6 1029.4 - 0.0 - - 10 - - - -
20/07:30pm 5.9 SSE 5 6 1029.1 - 0.0 - - 10 - - - -
20/07:00pm 7.0 S 5 5 1028.9 - 0.0 - - 10 - - - -
20/06:30pm 7.2 N 2 4 1028.6 - 0.0 - - 10 - - - -
20/06:00pm 8.7 N 1 4 1028.0 - 0.0 - - 10 - - - -
20/05:30pm 10.6 N 5 6 1027.7 - 0.0 - - 10 - - - -
20/05:00pm 11.4 N 6 7 1027.4 - 0.0 - - 10 - - - -
20/04:30pm 11.9 N 7 8 1027.1 - 0.0 - - 10 - - - -
20/04:00pm 12.4 N 7 9 1027.0 - 0.0 - - 10 - - - -
20/03:30pm 12.5 N 7 8 1026.9 - 0.0 - - 10 - - - -
20/03:00pm 12.7 N 7 9 1026.6 - 0.0 - - 10 - - - -
20/02:30pm 12.5 N 7 8 1026.5 - 0.0 - - 10 - - - -
20/02:00pm 12.8 N 6 8 1026.4 - 0.0 - - 10 - - - -
20/01:30pm 12.6 N 7 9 1026.3 - 0.0 - - 10 - - - -
20/01:00pm 12.8 N 6 8 1026.5 - 0.0 - - 10 - - - -
20/12:30pm 12.7 N 7 9 1026.6 - 0.0 - - 10 - - - -
20/12:00pm 12.6 N 7 9 1026.7 - 0.0 - - 10 - - - -
20/11:30am 12.9 ESE 5 7 1027.0 - 0.0 - - 10 - - - -
20/11:00am 11.5 SSE 5 8 1027.1 - 0.0 - - 10 - - - -
20/10:30am 10.8 S 7 9 1027.0 - 0.0 - - 10 - - - -
20/10:00am 9.6 S 7 8 1027.0 - 0.0 - - 10 - - - -
20/09:30am 8.6 S 8 11 1026.9 - 0.0 - - 10 - - - -
20/09:00am 7.6 S 10 13 1026.7 - 0.0 - - 10 - - - -
20/08:30am 6.4 S 7 9 1026.6 - 0.0 - Partly cloudy 10 - - - -
20/08:00am 4.6 W 3 4 1026.2 - 0.0 - Partly cloudy 10 - - - -
20/07:30am 4.0 WSW 3 5 1025.9 - 0.0 - Cloudy 10 - - - -
20/07:00am 2.1 SW 5 6 1025.4 - 0.0 - Partly cloudy 10 - - - -
20/06:30am 3.3 SW 5 7 1024.9 - 0.0 - - 10 - - - -
20/06:00am 2.9 SW 2 4 1024.9 - 0.0 - Mostly clear 10 - - - -
20/05:30am 3.3 S 6 7 1024.9 - 0.0 - Partly cloudy 10 - - - -
20/05:00am 3.2 S 4 5 1024.6 - 0.0 - Cloudy 10 - - - -
20/04:30am 2.5 SSW 4 6 1024.4 - 0.0 - Partly cloudy 10 - - - -
20/04:00am 2.9 SSW 4 5 1024.5 - 0.0 - - 10 - - - -
20/03:30am 2.6 SSW 3 5 1024.5 - 0.0 - - 10 - - - -
20/03:00am 3.4 SSW 7 9 1024.4 - 0.0 - - 10 - - - -
20/02:30am 1.9 S 3 5 1024.5 - 0.0 - - 10 - - - -
20/02:00am 2.2 SW 3 5 1024.6 - 0.0 - - 10 - - - -
20/01:30am 2.0 WSW 6 6 1024.6 - 0.0 - - 10 - - - -
20/01:00am 3.6 SW 6 6 1024.5 - 0.0 - - 10 - - - -
20/12:30am 4.3 SSW 4 5 1024.5 - 0.0 - - 10 - - - -
20/12:00am 4.0 SSW 3 5 1024.4 - 0.0 - - 10 - - - -
 
Date/Time
EST
Temp

°C
Wind Pressure Rain
since 9am
mm
Weather Cloud Vis
km
Sea
Height
m
Swell
Dir
 
Speed
knots
Gust
knots
hPa Trend Height
m
Period
s
Dir
19/11:30pm 4.0 SW 5 7 1024.3 - 0.0 - - 10 - - - -
19/11:00pm 4.5 SW 5 5 1024.2 - 0.0 - - 10 - - - -
19/10:30pm 4.7 SSW 5 6 1024.2 - 0.0 - - 10 - - - -
19/10:00pm 5.5 S 4 5 1024.3 - 0.0 - - 10 - - - -
19/09:30pm 5.2 SW 5 6 1024.2 - 0.0 - - 10 - - - -
19/09:00pm 6.1 S 5 6 1024.0 - 0.0 - - 10 - - - -
19/08:30pm 6.2 S 6 7 1024.0 - 0.0 - - 10 - - - -
19/08:00pm 6.1 SSE 7 8 1023.8 - 0.0 - - 10 - - - -
19/07:30pm 6.3 S 8 9 1023.6 - 0.0 - - 10 - - - -
19/07:00pm 6.8 S 7 8 1023.3 - 0.0 - - 10 - - - -
19/06:30pm 7.3 SE 5 5 1023.0 - 0.0 - - 10 - - - -
19/06:00pm 8.0 E 7 8 1022.7 - 0.0 - - 10 - - - -
19/05:30pm 9.4 NE 5 6 1022.6 - 0.0 - - 10 - - - -
19/05:00pm 11.1 N 6 7 1022.5 - 0.0 - - 10 - - - -
19/04:30pm 11.6 NNW 9 11 1022.6 - 0.0 - - 10 - - - -
19/04:00pm 11.7 NNW 7 9 1022.7 - 0.0 - - 10 - - - -
19/03:30pm 11.5 NW 9 10 1022.8 - 0.0 - - 10 - - - -
19/03:00pm 10.9 NNW 9 11 1022.9 - 0.0 - - 10 - - - -
19/02:30pm 11.1 NNW 10 11 1023.0 - 0.0 - - 10 - - - -
19/02:00pm 10.9 NNW 9 11 1022.8 - 0.0 - - 10 - - - -
19/01:30pm 11.1 NNW 9 11 1023.2 - 0.0 - - 10 - - - -
19/01:00pm 11.2 N 7 9 1023.5 - 0.0 - - 10 - - - -
19/12:30pm 11.1 N 6 8 1023.9 - 0.0 - - 10 - - - -
19/12:00pm 11.5 N 5 7 1024.3 - 0.0 - - 10 - - - -
19/11:30am 11.6 ESE 1 7 1024.8 - 0.0 - - 10 - - - -
19/11:00am 10.5 S 5 7 1025.2 - 0.0 - - 10 - - - -
19/10:30am 10.1 S 7 9 1025.2 - 0.0 - - 10 - - - -
19/10:00am 9.0 S 8 9 1025.2 - 0.0 - - 10 - - - -
19/09:30am 8.4 S 7 9 1025.3 - 0.0 - - 10 - - - -
19/09:00am 7.2 S 7 9 1025.3 - 0.0 - - 10 - - - -
19/08:30am 6.0 S 7 9 1025.3 - 0.0 - - 10 - - - -
19/08:00am 4.6 S 7 9 1025.1 - 0.0 - - 10 - - - -
19/07:30am 3.0 S 7 9 1024.9 - 0.0 - - 10 - - - -
19/07:00am 3.1 S 7 8 1024.6 - 0.0 - Partly cloudy 10 - - - -
19/06:30am 3.0 S 7 8 1024.4 - 0.0 - Partly cloudy 10 - - - -
19/06:00am 3.5 SSW 6 8 1024.4 - 0.0 - Partly cloudy 10 - - - -
19/05:30am 3.5 S 7 8 1024.2 - 0.0 - Partly cloudy 10 - - - -
19/05:00am 3.1 S 7 8 1024.1 - 0.0 - Partly cloudy 10 - - - -
19/04:30am 3.2 S 8 11 1023.8 - 0.0 - - 10 - - - -
19/04:00am 4.5 S 11 14 1023.7 - 0.0 - - 10 - - - -
19/03:30am 3.8 S 9 11 1023.7 - 0.0 - - 10 - - - -
19/03:00am 4.0 S 10 11 1023.9 - 0.0 - Mostly clear 10 - - - -
19/02:30am 3.9 S 8 10 1024.1 - 0.0 - Partly cloudy 10 - - - -
19/02:00am 4.7 S 9 11 1024.2 - 0.0 - - 10 - - - -
19/01:30am 5.8 SSE 10 11 1024.2 - 0.0 - - 10 - - - -
19/01:00am 5.8 SSE 10 12 1024.3 - 0.0 - - 10 - - - -
19/12:30am 6.1 SSE 11 12 1024.2 - 0.0 - - 10 - - - -
19/12:00am 5.7 SSE 9 11 1024.2 - 0.0 - - 10 - - - -
 
Date/Time
EST
Temp

°C
Wind Pressure Rain
since 9am
mm
Weather Cloud Vis
km
Sea
Height
m
Swell
Dir
 
Speed
knots
Gust
knots
hPa Trend Height
m
Period
s
Dir
18/11:30pm 5.0 SSE 9 11 1024.2 - 0.0 - - 10 - - - -
18/11:00pm 4.4 S 10 12 1024.3 - 0.0 - - 10 - - - -
18/10:30pm 4.8 S 3 6 1024.3 - 0.0 - - 10 - - - -
18/10:00pm 5.6 S 7 8 1024.3 - 0.0 - - 10 - - - -
18/09:30pm 5.8 S 7 8 1024.1 - 0.0 - - 10 - - - -
18/09:00pm 5.2 S 5 7 1024.1 - 0.0 - - 10 - - - -
18/08:30pm 5.8 S 5 6 1023.8 - 0.0 - - 10 - - - -

Other Formats:

Comma delimited format used in spreadsheet applications
http://www.bom.gov.au/fwo/IDV60701/IDV60701.95960.axf

JavaScript Object Notation format (JSON) in row-major order
http://www.bom.gov.au/fwo/IDV60701/IDV60701.95960.json